Allemand, Louisiana
Current Conditions -  °F | °C
As of 3:55 AM on Tuesday 21 Oct 2014 (Local Time) from KHUM Reporting Station
Clear Clear  
Wind Chill: 12°   Ceiling: Unl
Heat Index: 12°   Visibility: 7mi
Dew Point: 12°   Wind: 0mph
Humidity: 98%   Direction: NA
Pressure: 30"   Gusts: NA
Location:  29.5867°N, 90.8252°W
Report Text: KHUM 210855Z AUTO 00000KT 7SM CLR 12/12 A3000 RMK AO2 T01220119
Loading
Personal Weather Stations






























Interactive Weather Map
Tropical Storm Tracking
New forecast layout! Learn more

10-Day Weather Forecast

Advertisements
Track Severe Weather on mobile